createdAt,value
2022-12-25T00:02:27.045Z,3.60
2022-12-25T00:04:54.107Z,3.60
2022-12-25T00:07:20.998Z,3.60
2022-12-25T00:09:47.931Z,3.80
2022-12-25T00:12:14.905Z,4.00
2022-12-25T00:14:41.894Z,4.20
2022-12-25T00:17:08.819Z,4.40
2022-12-25T00:19:35.840Z,4.50
2022-12-25T00:22:03.150Z,4.50
2022-12-25T00:24:30.284Z,4.40
2022-12-25T00:26:57.325Z,4.40
2022-12-25T00:29:24.284Z,4.30
2022-12-25T00:31:52.560Z,4.30
2022-12-25T00:34:19.546Z,4.30
2022-12-25T00:36:46.433Z,4.20
2022-12-25T00:39:13.362Z,4.20
2022-12-25T00:41:59.096Z,4.20
2022-12-25T00:44:26.001Z,4.00
2022-12-25T00:46:53.002Z,3.80
2022-12-25T00:49:21.625Z,3.60
2022-12-25T00:51:49.146Z,3.40
2022-12-25T00:54:16.156Z,3.10
2022-12-25T00:56:43.080Z,2.90
2022-12-25T00:59:10.041Z,2.70
2022-12-25T01:01:37.063Z,2.70
2022-12-25T01:04:04.316Z,2.60
2022-12-25T01:06:31.656Z,2.60
2022-12-25T01:09:17.247Z,2.60
2022-12-25T01:11:44.507Z,2.50
2022-12-25T01:14:12.032Z,2.30
2022-12-25T01:16:39.112Z,2.30
2022-12-25T01:19:06.087Z,2.50
2022-12-25T01:21:33.048Z,2.70
2022-12-25T01:23:59.965Z,2.80
2022-12-25T01:26:27.187Z,2.90
2022-12-25T01:28:54.369Z,3.20
2022-12-25T01:31:22.530Z,3.40
2022-12-25T01:33:49.750Z,3.60
2022-12-25T01:36:18.168Z,3.70
2022-12-25T01:38:45.723Z,3.70
2022-12-25T01:41:13.567Z,3.70
2022-12-25T01:43:59.233Z,3.80
2022-12-25T01:46:26.183Z,3.80
2022-12-25T01:48:54.500Z,3.80
2022-12-25T01:51:34.816Z,4.10
2022-12-25T01:54:03.833Z,4.30
2022-12-25T01:56:31.286Z,4.40
2022-12-25T01:58:59.053Z,4.40
2022-12-25T02:01:26.223Z,4.10
2022-12-25T02:03:58.368Z,3.70
2022-12-25T02:06:27.165Z,3.50
2022-12-25T02:08:54.367Z,3.70
2022-12-25T02:11:41.629Z,3.80
2022-12-25T02:14:08.586Z,4.00
2022-12-25T02:16:57.782Z,4.20
2022-12-25T02:19:23.069Z,4.50
2022-12-25T02:22:08.905Z,4.70
2022-12-25T02:24:42.961Z,4.70
2022-12-25T02:27:25.241Z,4.60
2022-12-25T02:29:58.324Z,4.50
2022-12-25T02:32:31.053Z,4.30
2022-12-25T02:35:31.269Z,4.30
2022-12-25T02:38:11.477Z,4.30
2022-12-25T02:40:41.387Z,4.50
2022-12-25T02:43:41.670Z,4.60
2022-12-25T02:46:39.487Z,4.80
2022-12-25T02:49:27.222Z,5.10
2022-12-25T02:52:33.191Z,5.20
2022-12-25T02:55:29.823Z,5.10
2022-12-25T02:58:18.117Z,5.00
2022-12-25T03:01:05.938Z,4.90
2022-12-25T03:03:53.115Z,4.90
2022-12-25T03:06:53.617Z,5.10
2022-12-25T03:09:41.453Z,5.30
2022-12-25T03:12:11.369Z,5.30
2022-12-25T03:14:56.995Z,5.30
2022-12-25T03:17:24.477Z,5.30
2022-12-25T03:20:10.161Z,5.20
2022-12-25T03:22:55.726Z,5.20
2022-12-25T03:25:41.526Z,5.30
2022-12-25T03:28:08.492Z,5.40
2022-12-25T03:31:11.921Z,5.20
2022-12-25T03:34:11.149Z,4.90
2022-12-25T03:37:05.307Z,4.70
2022-12-25T03:39:58.584Z,4.50
2022-12-25T03:42:47.761Z,4.40
2022-12-25T03:45:47.607Z,4.20
2022-12-25T03:48:33.485Z,4.20
2022-12-25T03:51:22.157Z,4.10
2022-12-25T03:54:11.269Z,3.70
2022-12-25T03:56:56.881Z,3.50
2022-12-25T03:59:42.530Z,3.30
2022-12-25T04:02:28.230Z,3.10
2022-12-25T04:05:13.948Z,2.80
2022-12-25T04:07:59.464Z,2.50
2022-12-25T04:10:49.596Z,2.40
2022-12-25T04:13:35.562Z,2.40
2022-12-25T04:16:38.061Z,2.30
2022-12-25T04:19:23.652Z,2.20
2022-12-25T04:22:09.034Z,1.80
2022-12-25T04:24:55.037Z,1.50
2022-12-25T04:27:40.808Z,1.60
2022-12-25T04:30:26.884Z,1.90
2022-12-25T04:33:16.093Z,2.10
2022-12-25T04:36:05.713Z,2.40
2022-12-25T04:38:32.733Z,2.60
2022-12-25T04:41:00.520Z,2.50
2022-12-25T04:43:27.673Z,2.40
2022-12-25T04:45:54.975Z,2.40
2022-12-25T04:48:22.388Z,2.40
2022-12-25T04:50:49.380Z,2.40
2022-12-25T04:53:17.132Z,2.50
2022-12-25T04:55:44.593Z,2.30
2022-12-25T04:58:11.564Z,2.40
2022-12-25T05:00:38.509Z,2.50
2022-12-25T05:03:05.538Z,2.50
2022-12-25T05:05:32.590Z,2.50
2022-12-25T05:07:59.626Z,2.70
2022-12-25T05:10:26.592Z,3.00
2022-12-25T05:12:53.491Z,3.10
2022-12-25T05:15:20.508Z,3.20
2022-12-25T05:17:47.376Z,3.10
2022-12-25T05:20:14.324Z,3.10
2022-12-25T05:22:42.002Z,2.90
2022-12-25T05:25:08.959Z,2.80
2022-12-25T05:27:35.943Z,2.70
2022-12-25T05:30:03.352Z,2.70
2022-12-25T05:32:31.492Z,2.80
2022-12-25T05:35:00.389Z,2.70
2022-12-25T05:37:27.483Z,2.80
2022-12-25T05:39:54.395Z,3.10
2022-12-25T05:42:21.299Z,3.20
2022-12-25T05:44:48.294Z,3.50
2022-12-25T05:47:15.174Z,3.70
2022-12-25T05:49:42.514Z,3.80
2022-12-25T05:52:09.556Z,3.70
2022-12-25T05:54:36.483Z,3.60
2022-12-25T05:57:03.512Z,3.50
2022-12-25T05:59:30.866Z,3.40
2022-12-25T06:01:58.146Z,3.40
2022-12-25T06:04:25.274Z,3.50
2022-12-25T06:06:52.565Z,3.80
2022-12-25T06:09:19.575Z,4.00
2022-12-25T06:11:46.442Z,4.10
2022-12-25T06:14:13.910Z,4.20
2022-12-25T06:16:40.900Z,4.00
2022-12-25T06:19:07.912Z,3.70
2022-12-25T06:21:34.946Z,3.60
2022-12-25T06:24:01.976Z,3.30
2022-12-25T06:26:28.965Z,3.10
2022-12-25T06:28:55.867Z,3.00
2022-12-25T06:31:23.703Z,2.80
2022-12-25T06:33:50.834Z,2.70
2022-12-25T06:36:19.800Z,2.40
2022-12-25T06:38:47.010Z,2.20
2022-12-25T06:41:18.417Z,2.30
2022-12-25T06:43:53.284Z,2.10
2022-12-25T06:46:20.315Z,2.10
2022-12-25T06:48:50.275Z,2.20
2022-12-25T06:51:21.786Z,2.40
2022-12-25T06:53:49.400Z,2.50
2022-12-25T06:56:18.061Z,2.70
2022-12-25T06:58:49.272Z,2.70
2022-12-25T07:01:36.640Z,2.80
2022-12-25T07:04:07.984Z,3.00
2022-12-25T07:06:35.198Z,3.40
2022-12-25T07:09:02.110Z,3.70
2022-12-25T07:11:29.027Z,4.00
2022-12-25T07:13:56.293Z,4.20
2022-12-25T07:16:23.415Z,4.20
2022-12-25T07:18:50.472Z,4.00
2022-12-25T07:21:18.901Z,3.60
2022-12-25T07:23:47.015Z,3.40
2022-12-25T07:26:14.494Z,3.10
2022-12-25T07:28:41.413Z,3.00
2022-12-25T07:31:10.544Z,3.10
2022-12-25T07:33:37.471Z,3.10
2022-12-25T07:36:05.633Z,3.30
2022-12-25T07:38:32.766Z,3.60
2022-12-25T07:40:59.856Z,3.70
2022-12-25T07:43:27.047Z,3.80
2022-12-25T07:45:55.322Z,3.80
2022-12-25T07:48:22.279Z,3.70
2022-12-25T07:50:49.179Z,3.70
2022-12-25T07:53:16.103Z,3.70
2022-12-25T07:55:43.151Z,3.70
2022-12-25T07:58:10.192Z,3.50
2022-12-25T08:00:37.349Z,3.40
2022-12-25T08:03:04.703Z,3.30
2022-12-25T08:05:32.681Z,3.30
2022-12-25T08:07:59.610Z,3.30
2022-12-25T08:10:26.558Z,3.10
2022-12-25T08:12:56.031Z,3.20
2022-12-25T08:15:22.953Z,3.30
2022-12-25T08:17:50.012Z,3.40
2022-12-25T08:20:16.966Z,3.40
2022-12-25T08:22:43.838Z,3.60
2022-12-25T08:25:10.847Z,3.70
2022-12-25T08:27:37.866Z,3.90
2022-12-25T08:30:07.442Z,3.80
2022-12-25T08:32:34.704Z,3.80
2022-12-25T08:35:01.664Z,3.80
2022-12-25T08:37:31.770Z,3.80
2022-12-25T08:39:59.152Z,3.80
2022-12-25T08:42:26.412Z,3.90
2022-12-25T08:44:53.530Z,4.10
2022-12-25T08:47:20.401Z,4.10
2022-12-25T08:49:47.755Z,4.40
2022-12-25T08:52:15.536Z,5.20
2022-12-25T08:54:42.440Z,7.30
2022-12-25T08:57:09.460Z,9.30
2022-12-25T08:59:36.368Z,10.70
2022-12-25T09:02:03.462Z,10.60
2022-12-25T09:04:30.535Z,10.70
2022-12-25T09:06:57.512Z,11.40
2022-12-25T09:09:28.527Z,11.30
2022-12-25T09:11:55.553Z,10.80
2022-12-25T09:14:22.498Z,9.90
2022-12-25T09:16:52.411Z,9.00
2022-12-25T09:19:19.538Z,7.90
2022-12-25T09:21:47.045Z,7.40
2022-12-25T09:24:14.369Z,7.00
2022-12-25T09:26:41.365Z,6.70
2022-12-25T09:29:08.274Z,6.40
2022-12-25T09:31:35.339Z,6.60
2022-12-25T09:34:02.438Z,6.90
2022-12-25T09:36:29.337Z,7.20
2022-12-25T09:38:56.237Z,7.30
2022-12-25T09:41:28.674Z,7.70
2022-12-25T09:44:00.910Z,9.40
2022-12-25T09:46:36.429Z,10.90
2022-12-25T09:49:13.317Z,11.20
2022-12-25T09:51:41.100Z,11.20
2022-12-25T09:54:12.595Z,10.60
2022-12-25T09:56:39.740Z,9.70
2022-12-25T09:59:21.372Z,9.20
2022-12-25T10:01:54.539Z,8.90
2022-12-25T10:04:24.940Z,8.30
2022-12-25T10:06:51.928Z,7.80
2022-12-25T10:09:18.876Z,7.20
2022-12-25T10:11:45.851Z,7.20
2022-12-25T10:14:31.234Z,6.30
2022-12-25T10:17:01.238Z,6.10
2022-12-25T10:19:34.642Z,6.10
2022-12-25T10:22:03.990Z,5.90
2022-12-25T10:24:35.909Z,5.60
2022-12-25T10:27:05.173Z,5.40
2022-12-25T10:29:33.366Z,5.20
2022-12-25T10:32:00.335Z,5.20
2022-12-25T10:34:29.012Z,5.00
2022-12-25T10:36:55.929Z,4.90
2022-12-25T10:39:23.977Z,4.80
2022-12-25T10:41:50.968Z,4.90
2022-12-25T10:44:24.346Z,4.90
2022-12-25T10:46:52.902Z,4.90
2022-12-25T10:49:21.159Z,5.00
2022-12-25T10:51:48.041Z,5.10
2022-12-25T10:54:30.465Z,5.20
2022-12-25T10:56:57.429Z,5.20
2022-12-25T10:59:26.114Z,5.20
2022-12-25T11:01:55.515Z,5.20
2022-12-25T11:04:25.595Z,5.30
2022-12-25T11:07:05.348Z,5.40
2022-12-25T11:09:32.822Z,5.40
2022-12-25T11:12:00.277Z,5.50
2022-12-25T11:14:28.244Z,5.50
2022-12-25T11:16:55.148Z,5.80
2022-12-25T11:19:29.303Z,6.10
2022-12-25T11:21:57.757Z,6.20
2022-12-25T11:24:42.867Z,6.30
2022-12-25T11:27:20.367Z,6.00
2022-12-25T11:29:48.981Z,5.90
2022-12-25T11:32:28.886Z,5.90
2022-12-25T11:34:56.138Z,6.00
2022-12-25T11:37:34.111Z,6.20
2022-12-25T11:40:01.507Z,6.20
2022-12-25T11:42:32.690Z,6.50
2022-12-25T11:44:59.644Z,6.30
2022-12-25T11:47:32.857Z,6.20
2022-12-25T11:50:05.451Z,6.10
2022-12-25T11:52:35.054Z,5.90
2022-12-25T11:55:31.446Z,5.70
2022-12-25T11:58:00.270Z,5.60
2022-12-25T12:00:29.079Z,5.50
2022-12-25T12:03:14.463Z,5.50
2022-12-25T12:05:46.964Z,5.50
2022-12-25T12:08:14.554Z,5.40
2022-12-25T12:10:56.785Z,5.40
2022-12-25T12:13:27.829Z,5.40
2022-12-25T12:15:54.862Z,5.60
2022-12-25T12:18:27.998Z,5.60
2022-12-25T12:20:59.259Z,5.60
2022-12-25T12:23:26.817Z,5.70
2022-12-25T12:25:54.111Z,5.60
2022-12-25T12:28:28.455Z,5.50
2022-12-25T12:30:58.611Z,5.50
2022-12-25T12:33:28.304Z,5.40
2022-12-25T12:35:55.744Z,5.50
2022-12-25T12:38:23.276Z,5.70
2022-12-25T12:40:55.094Z,5.80
2022-12-25T12:43:31.350Z,5.80
2022-12-25T12:46:01.638Z,5.90
2022-12-25T12:48:30.418Z,5.90
2022-12-25T12:51:05.499Z,6.00
2022-12-25T12:53:32.932Z,6.00
2022-12-25T12:56:13.991Z,6.00
2022-12-25T12:58:46.285Z,6.10
2022-12-25T13:01:13.279Z,6.20
2022-12-25T13:03:40.160Z,6.20
2022-12-25T13:06:13.396Z,6.30
2022-12-25T13:08:48.209Z,6.50
2022-12-25T13:11:18.327Z,6.50
2022-12-25T13:13:46.174Z,6.50
2022-12-25T13:16:19.898Z,6.50
2022-12-25T13:18:47.175Z,6.50
2022-12-25T13:21:17.863Z,6.60
2022-12-25T13:23:44.908Z,6.70
2022-12-25T13:26:12.932Z,6.50
2022-12-25T13:28:40.190Z,6.50
2022-12-25T13:31:13.246Z,6.50
2022-12-25T13:33:41.045Z,6.50
2022-12-25T13:36:12.589Z,6.40
2022-12-25T13:38:47.065Z,6.40
2022-12-25T13:41:40.119Z,6.40
2022-12-25T13:44:14.512Z,6.40
2022-12-25T13:46:41.452Z,6.40
2022-12-25T13:49:15.713Z,6.40
2022-12-25T13:51:42.624Z,6.40
2022-12-25T13:54:11.747Z,6.30
2022-12-25T13:56:45.378Z,6.30
2022-12-25T13:59:15.041Z,6.30
2022-12-25T14:01:42.979Z,6.30
2022-12-25T14:04:17.475Z,6.20
2022-12-25T14:06:44.703Z,6.20
2022-12-25T14:09:12.465Z,6.20
2022-12-25T14:11:40.741Z,6.00
2022-12-25T14:14:21.831Z,5.90
2022-12-25T14:16:49.791Z,5.80
2022-12-25T14:19:23.543Z,5.70
2022-12-25T14:21:54.618Z,5.70
2022-12-25T14:24:22.429Z,5.70
2022-12-25T14:26:56.859Z,5.60
2022-12-25T14:29:28.230Z,5.60
2022-12-25T14:31:57.297Z,5.50
2022-12-25T14:34:24.990Z,5.50
2022-12-25T14:36:52.913Z,5.50
2022-12-25T14:39:25.241Z,5.50
2022-12-25T14:41:53.577Z,5.50
2022-12-25T14:44:38.896Z,5.40
2022-12-25T14:47:12.928Z,5.20
2022-12-25T14:49:39.893Z,5.20
2022-12-25T14:52:18.595Z,5.20
2022-12-25T14:54:46.980Z,5.10
2022-12-25T14:57:18.503Z,5.00
2022-12-25T14:59:45.579Z,4.80
2022-12-25T15:02:17.719Z,4.70
2022-12-25T15:04:44.808Z,4.70
2022-12-25T15:07:28.656Z,4.60
2022-12-25T15:10:18.563Z,4.60
2022-12-25T15:12:42.673Z,4.60
2022-12-25T15:15:09.844Z,4.50
2022-12-25T15:17:37.262Z,4.40
2022-12-25T15:20:05.559Z,4.30
2022-12-25T15:22:54.236Z,4.20
2022-12-25T15:25:21.971Z,4.10
2022-12-25T15:27:49.081Z,4.00
2022-12-25T15:30:16.051Z,3.90
2022-12-25T15:32:43.059Z,3.80
2022-12-25T15:35:14.967Z,3.70
2022-12-25T15:37:41.945Z,3.60
2022-12-25T15:40:10.733Z,3.70
2022-12-25T15:42:38.176Z,3.70
2022-12-25T15:45:05.564Z,3.70
2022-12-25T15:47:32.812Z,3.70
2022-12-25T15:49:59.826Z,3.70
2022-12-25T15:52:26.751Z,3.70
2022-12-25T15:54:54.364Z,3.70
2022-12-25T15:57:22.409Z,3.60
2022-12-25T15:59:49.355Z,3.60
2022-12-25T16:02:17.541Z,3.50
2022-12-25T16:04:44.958Z,3.30
2022-12-25T16:07:14.411Z,3.30
2022-12-25T16:09:41.302Z,3.20
2022-12-25T16:12:08.266Z,3.20
2022-12-25T16:14:35.187Z,3.10
2022-12-25T16:17:02.335Z,3.00
2022-12-25T16:19:29.374Z,3.00
2022-12-25T16:21:56.796Z,3.10
2022-12-25T16:24:23.752Z,3.10
2022-12-25T16:26:50.796Z,3.10
2022-12-25T16:29:17.926Z,3.00
2022-12-25T16:31:44.828Z,2.90
2022-12-25T16:34:11.874Z,2.90
2022-12-25T16:36:39.262Z,3.00
2022-12-25T16:39:07.160Z,3.10
2022-12-25T16:41:34.078Z,3.10
2022-12-25T16:44:09.389Z,3.20
2022-12-25T16:46:37.254Z,3.30
2022-12-25T16:49:06.865Z,3.20
2022-12-25T16:51:33.867Z,3.20
2022-12-25T16:54:00.942Z,3.10
2022-12-25T16:56:28.729Z,2.90
2022-12-25T16:58:56.924Z,2.80
2022-12-25T17:01:24.355Z,2.70
2022-12-25T17:03:51.909Z,2.70
2022-12-25T17:06:23.557Z,2.60
2022-12-25T17:08:52.123Z,2.60
2022-12-25T17:11:27.403Z,2.60
2022-12-25T17:13:54.599Z,2.60
2022-12-25T17:16:27.029Z,2.80
2022-12-25T17:18:58.667Z,2.90
2022-12-25T17:21:26.594Z,2.70
2022-12-25T17:23:59.653Z,2.60
2022-12-25T17:26:29.464Z,2.50
2022-12-25T17:28:57.301Z,2.40
2022-12-25T17:31:24.547Z,2.40
2022-12-25T17:33:51.745Z,2.30
2022-12-25T17:36:20.505Z,2.40
2022-12-25T17:38:47.791Z,2.60
2022-12-25T17:41:18.532Z,2.70
2022-12-25T17:43:46.004Z,2.80
2022-12-25T17:46:23.777Z,3.10
2022-12-25T17:48:51.251Z,3.40
2022-12-25T17:51:19.980Z,3.70
2022-12-25T17:53:48.005Z,3.70
2022-12-25T17:56:15.454Z,3.60
2022-12-25T17:58:42.591Z,3.20
2022-12-25T18:01:11.822Z,3.10
2022-12-25T18:03:39.199Z,3.20
2022-12-25T18:06:07.355Z,3.20
2022-12-25T18:08:39.211Z,3.20
2022-12-25T18:11:07.987Z,3.20
2022-12-25T18:13:35.148Z,3.40
2022-12-25T18:16:03.236Z,3.50
2022-12-25T18:18:30.635Z,3.50
2022-12-25T18:20:57.729Z,3.50
2022-12-25T18:23:24.946Z,3.50
2022-12-25T18:25:52.025Z,3.50
2022-12-25T18:28:19.151Z,3.40
2022-12-25T18:30:46.644Z,3.20
2022-12-25T18:33:13.597Z,3.10
2022-12-25T18:35:41.685Z,3.10
2022-12-25T18:38:10.018Z,3.10
2022-12-25T18:40:41.660Z,3.00
2022-12-25T18:43:09.318Z,3.00
2022-12-25T18:45:36.638Z,3.20
2022-12-25T18:48:06.329Z,3.30
2022-12-25T18:50:34.425Z,3.40
2022-12-25T18:53:01.905Z,3.50
2022-12-25T18:55:28.885Z,3.70
2022-12-25T18:57:56.188Z,3.70
2022-12-25T19:00:23.389Z,3.80
2022-12-25T19:02:50.996Z,3.70
2022-12-25T19:05:18.462Z,3.70
2022-12-25T19:07:45.437Z,3.80
2022-12-25T19:10:12.402Z,3.70
2022-12-25T19:12:39.384Z,3.60
2022-12-25T19:15:06.648Z,3.60
2022-12-25T19:17:34.641Z,3.70
2022-12-25T19:20:02.255Z,3.80
2022-12-25T19:22:29.459Z,4.00
2022-12-25T19:24:56.448Z,4.10
2022-12-25T19:27:23.850Z,4.10
2022-12-25T19:29:50.712Z,4.00
2022-12-25T19:32:17.679Z,3.70
2022-12-25T19:34:44.714Z,3.60
2022-12-25T19:37:11.687Z,3.60
2022-12-25T19:39:46.252Z,3.70
2022-12-25T19:42:16.893Z,3.70
2022-12-25T19:44:43.874Z,3.70
2022-12-25T19:47:11.917Z,3.70
2022-12-25T19:49:40.676Z,3.70
2022-12-25T19:52:08.365Z,3.60
2022-12-25T19:54:35.565Z,3.60
2022-12-25T19:57:02.517Z,3.60
2022-12-25T19:59:32.453Z,3.80
2022-12-25T20:01:59.621Z,4.00
2022-12-25T20:04:27.007Z,4.30
2022-12-25T20:06:53.937Z,4.50
2022-12-25T20:09:21.671Z,4.70
2022-12-25T20:11:48.992Z,4.80
2022-12-25T20:14:16.474Z,4.90
2022-12-25T20:16:44.118Z,4.80
2022-12-25T20:19:11.944Z,4.80
2022-12-25T20:21:39.022Z,4.80
2022-12-25T20:24:06.668Z,4.50
2022-12-25T20:26:33.737Z,4.50
2022-12-25T20:29:00.840Z,4.40
2022-12-25T20:31:29.486Z,4.40
2022-12-25T20:33:57.455Z,4.40
2022-12-25T20:36:28.455Z,4.40
2022-12-25T20:38:58.199Z,4.50
2022-12-25T20:41:27.197Z,4.70
2022-12-25T20:43:55.162Z,4.90
2022-12-25T20:46:22.724Z,5.00
2022-12-25T20:48:49.804Z,4.70
2022-12-25T20:51:18.422Z,4.80
2022-12-25T20:53:45.874Z,4.90
2022-12-25T20:56:13.474Z,5.10
2022-12-25T20:58:40.893Z,5.20
2022-12-25T21:01:08.645Z,5.30
2022-12-25T21:03:38.841Z,5.40
2022-12-25T21:06:06.411Z,4.90
2022-12-25T21:08:33.896Z,4.70
2022-12-25T21:11:01.493Z,4.80
2022-12-25T21:13:30.162Z,4.80
2022-12-25T21:15:57.683Z,4.90
2022-12-25T21:18:26.254Z,5.00
2022-12-25T21:20:55.254Z,5.00
2022-12-25T21:23:22.515Z,4.90
2022-12-25T21:25:53.740Z,4.90
2022-12-25T21:28:20.783Z,5.00
2022-12-25T21:30:48.486Z,5.10
2022-12-25T21:33:34.116Z,5.30
2022-12-25T21:36:07.283Z,5.40
2022-12-25T21:38:34.699Z,5.40
2022-12-25T21:41:02.636Z,5.40
2022-12-25T21:43:29.723Z,5.50
2022-12-25T21:45:59.275Z,5.50
2022-12-25T21:48:26.211Z,5.60
2022-12-25T21:51:12.155Z,5.50
2022-12-25T21:53:39.322Z,5.50
2022-12-25T21:56:06.355Z,5.50
2022-12-25T21:58:33.646Z,5.50
2022-12-25T22:01:04.093Z,5.50
2022-12-25T22:03:31.190Z,5.50
2022-12-25T22:06:21.472Z,5.50
2022-12-25T22:08:48.768Z,5.60
2022-12-25T22:11:34.206Z,5.60
2022-12-25T22:14:50.432Z,5.60
2022-12-25T22:17:42.968Z,5.60
2022-12-25T22:20:11.450Z,5.70
2022-12-25T22:22:38.378Z,5.70
2022-12-25T22:25:06.612Z,5.70
2022-12-25T22:27:35.483Z,5.70
2022-12-25T22:30:02.440Z,5.70
2022-12-25T22:32:29.432Z,5.70
2022-12-25T22:34:56.408Z,5.70
2022-12-25T22:37:24.420Z,5.70
2022-12-25T22:39:51.310Z,5.70
2022-12-25T22:42:18.322Z,5.60
2022-12-25T22:44:45.721Z,5.60
2022-12-25T22:47:12.624Z,5.60
2022-12-25T22:49:39.703Z,5.60
2022-12-25T22:52:08.300Z,5.60
2022-12-25T22:54:36.415Z,5.60
2022-12-25T22:57:03.991Z,5.60
2022-12-25T22:59:31.240Z,5.70
2022-12-25T23:01:58.617Z,5.70
2022-12-25T23:04:26.448Z,5.70
2022-12-25T23:06:53.408Z,5.70
2022-12-25T23:09:24.884Z,5.60
2022-12-25T23:11:51.907Z,5.60
2022-12-25T23:14:37.527Z,5.60
2022-12-25T23:17:04.817Z,5.70
2022-12-25T23:19:50.356Z,5.80
2022-12-25T23:22:35.987Z,5.80
2022-12-25T23:25:21.677Z,5.90
2022-12-25T23:27:48.602Z,5.70
2022-12-25T23:30:16.272Z,5.50
2022-12-25T23:32:43.987Z,5.40
2022-12-25T23:35:11.590Z,5.30
2022-12-25T23:37:38.595Z,5.20
2022-12-25T23:40:05.864Z,5.10
2022-12-25T23:42:32.777Z,5.10
2022-12-25T23:44:59.757Z,5.10
2022-12-25T23:47:26.731Z,5.20
2022-12-25T23:49:53.629Z,5.30
2022-12-25T23:52:21.096Z,5.40
2022-12-25T23:54:48.075Z,5.20
2022-12-25T23:57:15.138Z,5.10
2022-12-25T23:59:42.070Z,4.90
